Time;durP1;ratioP1;P1;durP2;ratioP2;P2;SDS_P1;SDS_P2;PMS_P1;PMS_P2;Temp;Humidity;BMP_temperature;BMP_pressure;BME280_temperature;BME280_humidity;BME280_pressure;Samples;Min_cycle;Max_cycle;Signal;HPM_P1;HPM_P2
2022/08/17 00:02:19;;;;;;;15.80;11.18;;;;;;;;;;5137237;27;20208;-44
2022/08/17 00:04:54;;;;;;;15.35;11.70;;;;;;;;;;5136942;27;20200;-46
2022/08/17 00:07:21;;;;;;;13.88;10.73;;;;;;;;;;5137341;27;20694;-47
2022/08/17 00:09:49;;;;;;;11.73;9.98;;;;;;;;;;5137210;27;20233;-44
2022/08/17 00:12:16;;;;;;;16.33;10.27;;;;;;;;;;5137613;27;20205;-46
2022/08/17 00:15:05;;;;;;;15.63;10.65;;;;;;;;;;5136725;27;20224;-45
2022/08/17 00:17:36;;;;;;;13.52;10.27;;;;;;;;;;5137506;27;20202;-45
2022/08/17 00:20:05;;;;;;;11.63;10.15;;;;;;;;;;5136779;27;20205;-45
2022/08/17 00:22:32;;;;;;;18.00;11.05;;;;;;;;;;5136913;27;20580;-46
2022/08/17 00:25:06;;;;;;;18.33;11.05;;;;;;;;;;5136705;27;20211;-47
2022/08/17 00:27:33;;;;;;;13.60;10.77;;;;;;;;;;5136560;27;20227;-45
2022/08/17 00:30:00;;;;;;;14.65;10.95;;;;;;;;;;5137066;27;20197;-46
2022/08/17 00:32:28;;;;;;;15.40;11.35;;;;;;;;;;5136750;27;20217;-46
2022/08/17 00:35:17;;;;;;;16.90;10.00;;;;;;;;;;5136753;27;20286;-45
2022/08/17 00:37:44;;;;;;;17.25;10.10;;;;;;;;;;5134562;27;20212;-49
2022/08/17 00:40:13;;;;;;;13.38;10.63;;;;;;;;;;5136155;27;20205;-45
2022/08/17 00:42:41;;;;;;;15.60;10.82;;;;;;;;;;5136719;27;20292;-46
2022/08/17 00:45:10;;;;;;;16.73;11.40;;;;;;;;;;5136469;27;20209;-46
2022/08/17 00:47:38;;;;;;;14.23;11.35;;;;;;;;;;5136449;27;20204;-46
2022/08/17 00:50:08;;;;;;;15.90;11.32;;;;;;;;;;5136231;27;20284;-45
2022/08/17 00:52:39;;;;;;;21.85;11.98;;;;;;;;;;5131737;27;20246;-45
2022/08/17 00:55:06;;;;;;;17.38;10.73;;;;;;;;;;5134428;27;20523;-45
2022/08/17 00:57:42;;;;;;;12.90;11.15;;;;;;;;;;5136416;27;20197;-45
2022/08/17 01:00:25;;;;;;;12.48;11.00;;;;;;;;;;5135596;27;20744;-46
2022/08/17 01:03:07;;;;;;;16.83;11.18;;;;;;;;;;5135303;27;20211;-45
2022/08/17 01:05:37;;;;;;;15.70;11.77;;;;;;;;;;5135752;27;20216;-46
2022/08/17 01:08:12;;;;;;;16.30;12.00;;;;;;;;;;5135940;27;20594;-48
2022/08/17 01:10:43;;;;;;;15.40;12.38;;;;;;;;;;5135717;27;20257;-45
2022/08/17 01:13:35;;;;;;;18.60;12.13;;;;;;;;;;5135033;27;20295;-45
2022/08/17 01:16:15;;;;;;;15.05;11.10;;;;;;;;;;5135234;27;20222;-47
2022/08/17 01:18:43;;;;;;;13.52;11.05;;;;;;;;;;5134767;27;20280;-46
2022/08/17 01:21:48;;;;;;;14.95;12.55;;;;;;;;;;5134405;28;20197;-47
2022/08/17 01:24:16;;;;;;;16.27;12.75;;;;;;;;;;5136178;28;20197;-45
2022/08/17 01:26:44;;;;;;;17.77;13.45;;;;;;;;;;5135243;27;20212;-46
2022/08/17 01:29:11;;;;;;;17.83;12.45;;;;;;;;;;5135450;27;20205;-46
2022/08/17 01:31:46;;;;;;;18.52;12.52;;;;;;;;;;5135489;27;20205;-45
2022/08/17 01:34:15;;;;;;;17.60;12.10;;;;;;;;;;5133943;27;20244;-46
2022/08/17 01:36:44;;;;;;;15.15;13.45;;;;;;;;;;5135025;27;20297;-45
2022/08/17 01:39:43;;;;;;;18.02;12.05;;;;;;;;;;5135194;27;20234;-48
2022/08/17 01:42:46;;;;;;;17.35;12.60;;;;;;;;;;5134875;27;20201;-46
2022/08/17 01:45:21;;;;;;;19.77;13.77;;;;;;;;;;5131420;27;20204;-45
2022/08/17 01:47:50;;;;;;;20.67;13.05;;;;;;;;;;5130223;27;20728;-46
2022/08/17 01:50:21;;;;;;;15.52;12.35;;;;;;;;;;5138244;27;20206;-45
2022/08/17 01:52:51;;;;;;;17.08;12.90;;;;;;;;;;5138811;27;20633;-45
2022/08/17 01:55:21;;;;;;;15.70;12.35;;;;;;;;;;5139194;27;20233;-46
2022/08/17 01:57:53;;;;;;;15.38;12.00;;;;;;;;;;5137846;27;20295;-46
2022/08/17 02:00:20;;;;;;;16.75;12.93;;;;;;;;;;5139049;27;20224;-46
2022/08/17 02:02:47;;;;;;;17.35;12.25;;;;;;;;;;5139786;27;20193;-47
2022/08/17 02:05:14;;;;;;;15.65;13.05;;;;;;;;;;5139459;27;20193;-45
2022/08/17 02:07:42;;;;;;;19.70;12.13;;;;;;;;;;5139316;27;20209;-46
2022/08/17 02:10:27;;;;;;;13.82;11.73;;;;;;;;;;5139863;27;20216;-45
2022/08/17 02:13:01;;;;;;;19.98;11.88;;;;;;;;;;5139054;27;20266;-47
2022/08/17 02:15:28;;;;;;;17.92;11.50;;;;;;;;;;5139107;27;20673;-46
2022/08/17 02:17:55;;;;;;;18.50;11.90;;;;;;;;;;5139437;27;20206;-45
2022/08/17 02:20:22;;;;;;;16.85;12.35;;;;;;;;;;5139104;27;20193;-45
2022/08/17 02:23:10;;;;;;;17.60;12.23;;;;;;;;;;5139252;27;20295;-51
2022/08/17 02:25:39;;;;;;;17.63;12.45;;;;;;;;;;5138401;27;20266;-44
2022/08/17 02:28:06;;;;;;;16.45;12.95;;;;;;;;;;5138476;27;20551;-47
2022/08/17 02:30:33;;;;;;;13.85;12.20;;;;;;;;;;5138438;27;20205;-46
2022/08/17 02:33:21;;;;;;;17.10;11.85;;;;;;;;;;5138688;27;20644;-47
2022/08/17 02:35:48;;;;;;;15.23;12.70;;;;;;;;;;5138795;27;20618;-48
2022/08/17 02:38:16;;;;;;;18.05;12.32;;;;;;;;;;5138296;27;20592;-44
2022/08/17 02:40:43;;;;;;;15.07;12.60;;;;;;;;;;5138782;27;20205;-46
2022/08/17 02:43:12;;;;;;;15.60;12.18;;;;;;;;;;5135756;27;20250;-45
2022/08/17 02:45:39;;;;;;;19.17;12.38;;;;;;;;;;5136308;27;20226;-45
2022/08/17 02:48:06;;;;;;;15.15;12.43;;;;;;;;;;5138749;27;20213;-45
2022/08/17 02:50:33;;;;;;;14.80;12.18;;;;;;;;;;5138246;27;20564;-45
2022/08/17 02:53:00;;;;;;;15.73;12.05;;;;;;;;;;5138140;27;20201;-45
2022/08/17 02:55:34;;;;;;;14.20;11.85;;;;;;;;;;5138261;27;20224;-47
2022/08/17 02:58:02;;;;;;;12.95;11.63;;;;;;;;;;5138062;27;20197;-47
2022/08/17 03:00:35;;;;;;;18.17;12.57;;;;;;;;;;5137158;27;20264;-46
2022/08/17 03:03:04;;;;;;;16.10;12.13;;;;;;;;;;5138122;27;20593;-46
2022/08/17 03:05:33;;;;;;;15.95;11.98;;;;;;;;;;5137754;27;20514;-48
2022/08/17 03:08:04;;;;;;;19.42;11.75;;;;;;;;;;5137873;27;20221;-46
2022/08/17 03:10:31;;;;;;;18.10;11.98;;;;;;;;;;5137971;27;20205;-47
2022/08/17 03:12:58;;;;;;;15.77;11.63;;;;;;;;;;5138168;27;20206;-49
2022/08/17 03:15:29;;;;;;;14.32;12.00;;;;;;;;;;5136982;27;20565;-46
2022/08/17 03:17:57;;;;;;;16.27;12.05;;;;;;;;;;5137475;27;20201;-46
2022/08/17 03:20:26;;;;;;;14.52;11.63;;;;;;;;;;5137866;27;20496;-45
2022/08/17 03:22:55;;;;;;;18.75;12.35;;;;;;;;;;5137894;27;20289;-45
2022/08/17 03:25:33;;;;;;;13.40;11.98;;;;;;;;;;5137602;27;20276;-45
2022/08/17 03:28:00;;;;;;;15.32;12.68;;;;;;;;;;5137614;27;20265;-46
2022/08/17 03:30:28;;;;;;;12.32;11.02;;;;;;;;;;5137220;27;20230;-45
2022/08/17 03:32:58;;;;;;;14.35;11.23;;;;;;;;;;5137107;27;20212;-47
2022/08/17 03:35:28;;;;;;;15.85;11.65;;;;;;;;;;5137164;27;20270;-45
2022/08/17 03:37:55;;;;;;;12.68;10.68;;;;;;;;;;5134563;27;20228;-45
2022/08/17 03:40:27;;;;;;;15.23;11.73;;;;;;;;;;5135398;27;20797;-45
2022/08/17 03:43:15;;;;;;;14.43;12.23;;;;;;;;;;5137432;27;20273;-46
2022/08/17 03:57:06;;;;;;;16.05;12.05;;;;;;;;;;5137398;27;20213;-45
2022/08/17 03:59:34;;;;;;;18.45;12.88;;;;;;;;;;5136381;27;20233;-46
2022/08/17 04:02:08;;;;;;;18.00;12.77;;;;;;;;;;5137345;27;20213;-46
2022/08/17 04:04:36;;;;;;;14.43;12.65;;;;;;;;;;5134497;27;20284;-46
2022/08/17 04:07:04;;;;;;;18.00;12.80;;;;;;;;;;5128718;27;20201;-45
2022/08/17 04:09:31;;;;;;;21.05;12.50;;;;;;;;;;5128489;27;20292;-46
2022/08/17 04:11:58;;;;;;;15.48;13.10;;;;;;;;;;5127025;27;20295;-45
2022/08/17 04:14:37;;;;;;;19.27;13.57;;;;;;;;;;5137514;27;20213;-45
2022/08/17 04:17:24;;;;;;;17.00;13.23;;;;;;;;;;5126894;27;20218;-45
2022/08/17 04:19:53;;;;;;;23.00;13.35;;;;;;;;;;5126992;27;20197;-46
2022/08/17 04:22:20;;;;;;;16.15;13.85;;;;;;;;;;5135354;27;20221;-45
2022/08/17 04:25:14;;;;;;;15.77;14.25;;;;;;;;;;5147139;27;20758;-48
2022/08/17 04:27:41;;;;;;;17.15;14.13;;;;;;;;;;5135019;27;20233;-46
2022/08/17 04:30:09;;;;;;;20.23;15.13;;;;;;;;;;5134590;27;20219;-48
2022/08/17 04:33:16;;;;;;;19.48;14.65;;;;;;;;;;5134815;27;20292;-47
2022/08/17 04:35:48;;;;;;;19.85;14.75;;;;;;;;;;5079113;28;20237;-45
2022/08/17 04:38:18;;;;;;;20.58;14.32;;;;;;;;;;5076186;28;20659;-47
2022/08/17 04:43:32;;;;;;;25.15;15.45;;;;;;;;;;5072494;28;20216;-47
2022/08/17 04:46:04;;;;;;;21.15;13.25;;;;;;;;;;5071814;28;20231;-48
2022/08/17 04:48:34;;;;;;;19.92;14.07;;;;;;;;;;5071537;28;20222;-46
2022/08/17 04:51:14;;;;;;;20.70;14.52;;;;;;;;;;5071786;28;20226;-45
2022/08/17 04:53:43;;;;;;;21.27;13.63;;;;;;;;;;5072239;28;20233;-44
2022/08/17 04:56:14;;;;;;;14.82;13.23;;;;;;;;;;5070350;28;20590;-46
2022/08/17 04:58:44;;;;;;;16.63;12.77;;;;;;;;;;5069988;28;20239;-46
2022/08/17 05:01:13;;;;;;;15.32;12.18;;;;;;;;;;5071807;28;20223;-45
2022/08/17 05:03:40;;;;;;;16.25;12.07;;;;;;;;;;5072344;28;20293;-45
2022/08/17 05:06:08;;;;;;;18.23;12.55;;;;;;;;;;5071836;28;20227;-47
2022/08/17 05:08:35;;;;;;;13.82;11.73;;;;;;;;;;5074806;28;20231;-44
2022/08/17 05:11:02;;;;;;;16.50;12.02;;;;;;;;;;5114529;28;20263;-47
2022/08/17 05:13:29;;;;;;;13.45;11.15;;;;;;;;;;5114934;27;20267;-45
2022/08/17 05:15:59;;;;;;;12.93;11.27;;;;;;;;;;5114675;28;20306;-44
2022/08/17 05:18:28;;;;;;;12.50;11.15;;;;;;;;;;5114520;27;20228;-44
2022/08/17 05:20:55;;;;;;;15.52;11.13;;;;;;;;;;5125206;28;20204;-53
2022/08/17 05:23:24;;;;;;;15.60;11.30;;;;;;;;;;5131532;27;20197;-45
2022/08/17 05:25:57;;;;;;;15.52;11.38;;;;;;;;;;5132085;27;20194;-47
2022/08/17 05:28:26;;;;;;;15.85;11.13;;;;;;;;;;5134141;27;20186;-49
2022/08/17 05:30:56;;;;;;;12.57;11.27;;;;;;;;;;5131519;28;20276;-47
2022/08/17 05:33:26;;;;;;;19.33;11.93;;;;;;;;;;5135243;27;20196;-48
2022/08/17 05:35:56;;;;;;;16.67;11.07;;;;;;;;;;5134465;27;20225;-46
2022/08/17 05:38:25;;;;;;;13.57;11.35;;;;;;;;;;5135777;27;20201;-49
2022/08/17 05:40:52;;;;;;;13.05;11.13;;;;;;;;;;5134043;27;20205;-50
2022/08/17 05:43:23;;;;;;;11.90;10.20;;;;;;;;;;5134816;28;20207;-47
2022/08/17 05:46:19;;;;;;;12.25;10.68;;;;;;;;;;5134808;28;20288;-47
2022/08/17 05:48:49;;;;;;;12.10;10.05;;;;;;;;;;5134026;27;20235;-48
2022/08/17 05:51:25;;;;;;;11.80;10.52;;;;;;;;;;5134270;27;20197;-47
2022/08/17 05:54:10;;;;;;;17.48;11.23;;;;;;;;;;5135287;27;20509;-47
2022/08/17 05:56:52;;;;;;;13.95;10.13;;;;;;;;;;5135235;27;20213;-48
2022/08/17 05:59:39;;;;;;;13.73;10.85;;;;;;;;;;5131535;28;20507;-47
2022/08/17 06:02:27;;;;;;;12.98;11.10;;;;;;;;;;5132119;28;20551;-44
2022/08/17 06:05:33;;;;;;;19.08;11.70;;;;;;;;;;5114145;28;20193;-46
2022/08/17 06:08:19;;;;;;;14.68;10.82;;;;;;;;;;5109721;28;20203;-44
2022/08/17 06:10:57;;;;;;;15.65;12.57;;;;;;;;;;5135191;28;20578;-46
2022/08/17 06:14:01;;;;;;;12.57;11.27;;;;;;;;;;5134329;27;20203;-45
2022/08/17 06:16:34;;;;;;;14.55;10.73;;;;;;;;;;5131946;28;20225;-44
2022/08/17 06:19:09;;;;;;;13.40;11.27;;;;;;;;;;5133607;27;20276;-47
2022/08/17 06:21:38;;;;;;;13.93;10.85;;;;;;;;;;5132943;27;20193;-47
2022/08/17 06:24:26;;;;;;;15.75;10.52;;;;;;;;;;5133388;27;20533;-44
2022/08/17 06:26:58;;;;;;;15.32;11.13;;;;;;;;;;5125764;27;20253;-46
2022/08/17 06:29:41;;;;;;;12.35;10.57;;;;;;;;;;5132412;28;20759;-47
2022/08/17 06:32:10;;;;;;;14.23;10.63;;;;;;;;;;5132294;28;20229;-44
2022/08/17 06:34:39;;;;;;;13.98;11.18;;;;;;;;;;5142313;27;20316;-44
2022/08/17 06:37:43;;;;;;;15.68;10.95;;;;;;;;;;5140522;27;20256;-44
2022/08/17 06:40:44;;;;;;;13.20;11.18;;;;;;;;;;5141050;27;20216;-45
2022/08/17 06:43:47;;;;;;;12.60;11.30;;;;;;;;;;5158921;27;20216;-45
2022/08/17 06:46:28;;;;;;;13.77;11.43;;;;;;;;;;5157810;27;20228;-47
2022/08/17 06:49:13;;;;;;;16.85;11.77;;;;;;;;;;5158474;27;20717;-47
2022/08/17 06:51:45;;;;;;;15.73;11.75;;;;;;;;;;5157421;27;20584;-48
2022/08/17 06:54:26;;;;;;;15.40;11.32;;;;;;;;;;5157266;27;20543;-45
2022/08/17 06:57:05;;;;;;;18.15;10.55;;;;;;;;;;5157399;27;20251;-46
2022/08/17 06:59:40;;;;;;;13.73;10.90;;;;;;;;;;5157591;27;20239;-45
2022/08/17 07:02:58;;;;;;;14.20;11.25;;;;;;;;;;5157836;27;20227;-45
2022/08/17 07:05:31;;;;;;;15.98;12.32;;;;;;;;;;5074431;28;20292;-45
2022/08/17 07:08:03;;;;;;;12.55;10.27;;;;;;;;;;5057661;28;20288;-45
2022/08/17 07:10:46;;;;;;;14.43;10.25;;;;;;;;;;5051236;28;20220;-45
2022/08/17 07:13:39;;;;;;;13.23;11.30;;;;;;;;;;5054087;28;20231;-45
2022/08/17 07:16:14;;;;;;;14.18;11.60;;;;;;;;;;5027272;28;20232;-46
2022/08/17 07:18:42;;;;;;;14.45;11.38;;;;;;;;;;5054394;28;20281;-48
2022/08/17 07:21:21;;;;;;;12.43;10.70;;;;;;;;;;5036227;28;20220;-51
2022/08/17 07:24:02;;;;;;;18.75;11.70;;;;;;;;;;5040175;28;20227;-51
2022/08/17 07:26:30;;;;;;;15.07;10.60;;;;;;;;;;5063812;28;20224;-45
2022/08/17 07:28:58;;;;;;;16.23;11.52;;;;;;;;;;5023246;28;20232;-47
2022/08/17 07:31:29;;;;;;;18.77;12.02;;;;;;;;;;5052729;28;20255;-46
2022/08/17 07:34:13;;;;;;;14.77;11.60;;;;;;;;;;5051436;28;20234;-46
2022/08/17 07:36:40;;;;;;;13.43;11.27;;;;;;;;;;5038194;28;20239;-45
2022/08/17 07:39:08;;;;;;;12.68;10.45;;;;;;;;;;5035800;28;20238;-44
2022/08/17 07:41:38;;;;;;;11.05;9.90;;;;;;;;;;5130309;27;20323;-44
2022/08/17 07:44:25;;;;;;;14.43;11.40;;;;;;;;;;5157549;27;20220;-45
2022/08/17 07:49:45;;;;;;;15.32;11.13;;;;;;;;;;5131783;27;20212;-45
2022/08/17 07:52:28;;;;;;;16.52;10.85;;;;;;;;;;5132383;27;20274;-47
2022/08/17 07:55:31;;;;;;;14.23;10.55;;;;;;;;;;5135665;27;20554;-48
2022/08/17 07:57:58;;;;;;;13.45;10.32;;;;;;;;;;5132827;27;20189;-45
2022/08/17 08:00:27;;;;;;;12.85;10.52;;;;;;;;;;5131332;27;20550;-47
2022/08/17 08:03:20;;;;;;;21.15;11.35;;;;;;;;;;5131454;27;20193;-46
2022/08/17 08:05:53;;;;;;;14.25;11.23;;;;;;;;;;5159236;27;20182;-48
2022/08/17 08:08:39;;;;;;;16.20;11.35;;;;;;;;;;5135801;27;20193;-46
2022/08/17 08:11:10;;;;;;;12.82;10.20;;;;;;;;;;5133613;27;20199;-45
2022/08/17 08:13:42;;;;;;;15.25;10.60;;;;;;;;;;5130655;27;20205;-45
2022/08/17 08:16:20;;;;;;;19.35;10.55;;;;;;;;;;5130742;27;20534;-46
2022/08/17 08:18:50;;;;;;;12.70;10.05;;;;;;;;;;5132947;27;20311;-48
2022/08/17 08:21:41;;;;;;;12.40;10.25;;;;;;;;;;5133613;27;20249;-50
2022/08/17 08:24:13;;;;;;;16.23;10.10;;;;;;;;;;5129398;27;20254;-48
2022/08/17 08:26:54;;;;;;;12.98;9.90;;;;;;;;;;5134805;27;20193;-47
2022/08/17 08:29:46;;;;;;;11.93;9.23;;;;;;;;;;5134321;27;20213;-46
2022/08/17 08:32:35;;;;;;;13.88;9.98;;;;;;;;;;5133032;27;20280;-51
2022/08/17 08:35:07;;;;;;;10.68;9.23;;;;;;;;;;5133792;27;20641;-46
2022/08/17 08:37:59;;;;;;;12.23;9.90;;;;;;;;;;5134014;27;20208;-46
2022/08/17 08:40:29;;;;;;;16.27;9.80;;;;;;;;;;5131313;27;20178;-49
2022/08/17 08:43:06;;;;;;;14.20;9.85;;;;;;;;;;5133692;27;20203;-47
2022/08/17 08:45:55;;;;;;;15.73;10.07;;;;;;;;;;5131686;27;20181;-49
2022/08/17 08:48:44;;;;;;;12.95;10.65;;;;;;;;;;5133202;27;20257;-49
2022/08/17 08:51:57;;;;;;;12.02;9.63;;;;;;;;;;5133655;27;20216;-51
2022/08/17 08:54:46;;;;;;;18.02;10.40;;;;;;;;;;5134155;27;20528;-46
2022/08/17 08:57:20;;;;;;;13.77;9.75;;;;;;;;;;5128627;27;20209;-48
2022/08/17 09:00:04;;;;;;;12.85;10.32;;;;;;;;;;5113521;28;20253;-47
2022/08/17 09:03:02;;;;;;;16.45;9.60;;;;;;;;;;5115134;28;20533;-47
2022/08/17 09:05:46;;;;;;;12.18;10.48;;;;;;;;;;5113775;28;20206;-47
2022/08/17 09:08:52;;;;;;;14.90;10.27;;;;;;;;;;5113273;28;20193;-50
2022/08/17 09:11:24;;;;;;;11.15;9.57;;;;;;;;;;5115489;28;20197;-46
2022/08/17 09:14:03;;;;;;;16.60;11.20;;;;;;;;;;5115423;28;20194;-50
2022/08/17 09:16:39;;;;;;;11.18;9.38;;;;;;;;;;5114792;28;20259;-47
2022/08/17 09:19:18;;;;;;;13.20;10.50;;;;;;;;;;5113857;28;20205;-49
2022/08/17 09:21:53;;;;;;;12.70;9.68;;;;;;;;;;5114259;28;20201;-47
2022/08/17 09:24:24;;;;;;;12.80;9.27;;;;;;;;;;5113566;28;20185;-46
2022/08/17 09:27:10;;;;;;;14.93;9.82;;;;;;;;;;5112836;28;20197;-51
2022/08/17 09:29:41;;;;;;;14.70;9.07;;;;;;;;;;5113494;28;20182;-46
2022/08/17 09:32:32;;;;;;;11.20;9.00;;;;;;;;;;5112481;28;20178;-46
2022/08/17 09:35:06;;;;;;;13.60;10.20;;;;;;;;;;5113479;28;20182;-50
2022/08/17 09:37:46;;;;;;;13.35;8.60;;;;;;;;;;5113351;28;20560;-46
2022/08/17 09:40:23;;;;;;;12.20;9.20;;;;;;;;;;5114105;28;20186;-47
2022/08/17 09:42:58;;;;;;;12.00;9.45;;;;;;;;;;5114617;28;20190;-46
2022/08/17 09:45:41;;;;;;;13.40;9.50;;;;;;;;;;5115227;28;20197;-47
2022/08/17 09:48:23;;;;;;;12.38;8.95;;;;;;;;;;5111888;27;20222;-49
2022/08/17 09:51:11;;;;;;;12.50;9.90;;;;;;;;;;5127834;28;20229;-48
2022/08/17 09:53:39;;;;;;;10.95;9.63;;;;;;;;;;5147382;27;20235;-49
2022/08/17 09:56:27;;;;;;;16.52;9.68;;;;;;;;;;5147019;27;20229;-46
2022/08/17 09:59:15;;;;;;;13.82;9.63;;;;;;;;;;5141193;27;20240;-46
2022/08/17 10:02:12;;;;;;;11.75;9.60;;;;;;;;;;5149969;27;20221;-47
2022/08/17 10:04:52;;;;;;;12.50;9.57;;;;;;;;;;5134914;27;20240;-51
2022/08/17 10:07:33;;;;;;;14.20;10.48;;;;;;;;;;5133642;28;20221;-46
2022/08/17 10:10:15;;;;;;;12.27;9.60;;;;;;;;;;5135606;27;20290;-45
2022/08/17 10:13:03;;;;;;;13.43;9.73;;;;;;;;;;5136207;27;20268;-50
2022/08/17 10:15:35;;;;;;;14.57;10.23;;;;;;;;;;5136390;27;20229;-49
2022/08/17 10:18:21;;;;;;;12.85;9.35;;;;;;;;;;5136640;27;20228;-47
2022/08/17 10:27:02;;;;;;;10.98;9.15;;;;;;;;;;5080796;28;20214;-47
2022/08/17 10:29:34;;;;;;;12.95;9.52;;;;;;;;;;5116179;28;20535;-47
2022/08/17 10:32:24;;;;;;;16.05;9.13;;;;;;;;;;5117174;28;20190;-46
2022/08/17 10:35:00;;;;;;;13.85;9.25;;;;;;;;;;5117338;28;20222;-46
2022/08/17 10:37:48;;;;;;;12.80;8.90;;;;;;;;;;5117323;28;20224;-46
2022/08/17 10:40:44;;;;;;;11.43;8.45;;;;;;;;;;5116345;28;20197;-46
2022/08/17 10:43:17;;;;;;;14.10;8.57;;;;;;;;;;5118227;28;20213;-47
2022/08/17 10:46:07;;;;;;;10.68;9.45;;;;;;;;;;5117459;28;20216;-46
2022/08/17 10:49:15;;;;;;;9.73;8.18;;;;;;;;;;5115555;28;20206;-49
2022/08/17 10:51:46;;;;;;;12.25;9.13;;;;;;;;;;5117605;28;20190;-46
2022/08/17 10:54:23;;;;;;;15.80;8.68;;;;;;;;;;5116746;28;20202;-46
2022/08/17 10:56:52;;;;;;;12.02;8.73;;;;;;;;;;5116740;28;20638;-47
2022/08/17 10:59:34;;;;;;;11.55;8.52;;;;;;;;;;5116915;28;20608;-48
2022/08/17 11:02:18;;;;;;;11.85;8.30;;;;;;;;;;5116763;28;20190;-47
2022/08/17 11:05:08;;;;;;;12.85;8.27;;;;;;;;;;5116552;28;20243;-46
2022/08/17 11:08:05;;;;;;;13.75;7.78;;;;;;;;;;5116474;28;20300;-47
2022/08/17 11:10:42;;;;;;;11.07;8.60;;;;;;;;;;5120455;27;20606;-47
2022/08/17 11:13:40;;;;;;;9.93;7.93;;;;;;;;;;5144122;27;20706;-46
2022/08/17 11:16:29;;;;;;;10.60;8.07;;;;;;;;;;5132346;27;20233;-47
2022/08/17 11:19:14;;;;;;;9.23;7.25;;;;;;;;;;5133397;27;20217;-51
2022/08/17 11:22:04;;;;;;;11.68;6.95;;;;;;;;;;5135409;27;20642;-46
2022/08/17 11:24:50;;;;;;;13.30;7.47;;;;;;;;;;5133502;27;20232;-49
2022/08/17 11:27:20;;;;;;;11.95;7.32;;;;;;;;;;5134345;27;20289;-45
2022/08/17 11:29:53;;;;;;;10.93;6.80;;;;;;;;;;5135782;27;20214;-47
2022/08/17 11:32:36;;;;;;;10.30;7.00;;;;;;;;;;5134826;27;20213;-46
2022/08/17 11:35:18;;;;;;;10.35;7.05;;;;;;;;;;5133345;27;20221;-44
2022/08/17 11:37:55;;;;;;;11.77;7.57;;;;;;;;;;5135782;27;20225;-45
2022/08/17 11:40:34;;;;;;;10.10;7.70;;;;;;;;;;5134969;27;20251;-48
2022/08/17 11:43:22;;;;;;;12.20;7.22;;;;;;;;;;5134259;27;20205;-48
2022/08/17 11:46:05;;;;;;;13.65;7.57;;;;;;;;;;5133791;27;20665;-47
2022/08/17 11:51:54;;;;;;;10.98;6.75;;;;;;;;;;5133834;27;20209;-46
2022/08/17 11:54:27;;;;;;;11.48;7.70;;;;;;;;;;5134940;27;20213;-47
2022/08/17 11:57:25;;;;;;;17.90;7.68;;;;;;;;;;5135044;27;20656;-46
2022/08/17 11:59:53;;;;;;;12.95;7.25;;;;;;;;;;5133779;27;20568;-45
2022/08/17 12:02:33;;;;;;;10.77;7.25;;;;;;;;;;5135057;27;20622;-45
2022/08/17 12:05:15;;;;;;;8.52;6.65;;;;;;;;;;5134942;27;20243;-50
2022/08/17 12:07:50;;;;;;;9.15;6.65;;;;;;;;;;5135004;27;20308;-46
2022/08/17 12:10:22;;;;;;;8.23;6.60;;;;;;;;;;5134551;27;20225;-47
2022/08/17 12:12:51;;;;;;;8.43;6.47;;;;;;;;;;5135234;27;20225;-47
2022/08/17 12:15:27;;;;;;;12.52;7.40;;;;;;;;;;5134612;27;20278;-46
2022/08/17 12:17:55;;;;;;;8.40;6.78;;;;;;;;;;5133853;27;20653;-47
2022/08/17 12:20:39;;;;;;;11.75;7.38;;;;;;;;;;5134852;27;20270;-45
2022/08/17 12:23:24;;;;;;;10.05;7.07;;;;;;;;;;5133065;27;20545;-46
2022/08/17 12:26:15;;;;;;;11.60;7.75;;;;;;;;;;5160355;27;20217;-45
2022/08/17 12:28:48;;;;;;;10.68;6.72;;;;;;;;;;5128026;27;20221;-47
2022/08/17 12:31:27;;;;;;;14.98;6.47;;;;;;;;;;5133595;27;20186;-49
2022/08/17 12:33:55;;;;;;;11.85;6.40;;;;;;;;;;5134330;27;20694;-46
2022/08/17 12:36:23;;;;;;;10.00;6.60;;;;;;;;;;5149615;27;20216;-46
2022/08/17 12:38:58;;;;;;;8.85;6.30;;;;;;;;;;5145977;27;20301;-47
2022/08/17 12:41:46;;;;;;;8.60;6.57;;;;;;;;;;5136008;27;20254;-45
2022/08/17 12:44:18;;;;;;;11.93;6.43;;;;;;;;;;5133526;27;20673;-45
2022/08/17 12:46:47;;;;;;;8.35;6.30;;;;;;;;;;5135852;27;20243;-45
2022/08/17 12:49:18;;;;;;;8.32;6.38;;;;;;;;;;5156337;27;20224;-46
2022/08/17 12:51:46;;;;;;;10.38;6.07;;;;;;;;;;5156147;27;20221;-45
2022/08/17 12:54:27;;;;;;;9.90;6.15;;;;;;;;;;5156382;27;20303;-45
2022/08/17 12:56:54;;;;;;;8.55;5.65;;;;;;;;;;5155869;27;20251;-48
2022/08/17 12:59:22;;;;;;;8.45;6.35;;;;;;;;;;5156400;27;20304;-47
2022/08/17 13:01:58;;;;;;;10.00;7.10;;;;;;;;;;5155372;27;20209;-47
2022/08/17 13:04:26;;;;;;;11.50;7.25;;;;;;;;;;5155239;27;20259;-45
2022/08/17 13:06:56;;;;;;;25.08;7.72;;;;;;;;;;5156013;27;20690;-56
2022/08/17 13:09:29;;;;;;;12.50;6.63;;;;;;;;;;5155942;27;20251;-54
2022/08/17 13:12:06;;;;;;;14.20;6.80;;;;;;;;;;5155826;27;20223;-56
2022/08/17 13:14:34;;;;;;;11.25;7.32;;;;;;;;;;5154900;27;20239;-55
2022/08/17 13:17:04;;;;;;;12.73;7.07;;;;;;;;;;5152588;27;20220;-56
2022/08/17 13:19:47;;;;;;;8.20;6.68;;;;;;;;;;5132742;27;20189;-51
2022/08/17 13:22:14;;;;;;;9.80;7.07;;;;;;;;;;5133552;27;20267;-54
2022/08/17 13:24:56;;;;;;;11.70;7.15;;;;;;;;;;5132526;28;20208;-55
2022/08/17 13:27:25;;;;;;;15.80;7.18;;;;;;;;;;5132961;28;20189;-51
2022/08/17 13:29:56;;;;;;;10.95;7.00;;;;;;;;;;5133345;27;20536;-54
2022/08/17 13:32:29;;;;;;;12.48;6.40;;;;;;;;;;5132946;27;20189;-52
2022/08/17 13:35:06;;;;;;;12.85;6.57;;;;;;;;;;5132622;28;20181;-57
2022/08/17 13:38:00;;;;;;;8.73;6.57;;;;;;;;;;5134098;28;20205;-53
2022/08/17 13:40:49;;;;;;;11.10;6.22;;;;;;;;;;5134106;27;20201;-54
2022/08/17 13:43:35;;;;;;;9.20;7.15;;;;;;;;;;5131172;28;20269;-51
2022/08/17 13:46:09;;;;;;;10.52;7.00;;;;;;;;;;5136255;27;20571;-55
2022/08/17 13:48:36;;;;;;;11.88;6.90;;;;;;;;;;5136060;27;20205;-51
2022/08/17 13:51:11;;;;;;;10.00;6.10;;;;;;;;;;5138593;27;20196;-54
2022/08/17 13:53:38;;;;;;;11.52;6.60;;;;;;;;;;5134994;27;20713;-56
2022/08/17 13:56:10;;;;;;;10.38;7.22;;;;;;;;;;5137305;27;20197;-57
2022/08/17 13:59:01;;;;;;;9.88;6.57;;;;;;;;;;5126757;27;20305;-56
2022/08/17 14:01:41;;;;;;;9.85;6.30;;;;;;;;;;5134782;27;20213;-54
2022/08/17 14:04:12;;;;;;;10.10;6.70;;;;;;;;;;5134094;27;20229;-56
2022/08/17 14:06:43;;;;;;;11.13;7.35;;;;;;;;;;5146241;27;20231;-57
2022/08/17 14:09:40;;;;;;;16.80;8.02;;;;;;;;;;5140039;27;20308;-57
2022/08/17 14:12:10;;;;;;;14.93;8.23;;;;;;;;;;5127876;27;20228;-55
2022/08/17 14:14:38;;;;;;;26.50;12.10;;;;;;;;;;5152100;27;20242;-58
2022/08/17 14:17:06;;;;;;;8.88;6.95;;;;;;;;;;5137604;27;20239;-55
2022/08/17 14:19:34;;;;;;;13.38;7.47;;;;;;;;;;5136839;27;20233;-56
2022/08/17 14:22:01;;;;;;;12.93;7.00;;;;;;;;;;5137508;27;20217;-56
2022/08/17 14:24:31;;;;;;;13.30;7.22;;;;;;;;;;5136809;27;20225;-55
2022/08/17 14:27:00;;;;;;;14.07;7.97;;;;;;;;;;5134766;27;20688;-57
2022/08/17 14:29:28;;;;;;;12.25;7.50;;;;;;;;;;5132759;27;20213;-55
2022/08/17 14:31:56;;;;;;;14.57;7.40;;;;;;;;;;5134405;27;20228;-56
2022/08/17 14:34:24;;;;;;;10.70;7.28;;;;;;;;;;5134127;27;20232;-56
2022/08/17 14:36:51;;;;;;;12.38;7.35;;;;;;;;;;5133895;27;20221;-57
2022/08/17 14:39:19;;;;;;;15.38;7.47;;;;;;;;;;5134988;27;20228;-53
2022/08/17 14:41:46;;;;;;;12.38;8.00;;;;;;;;;;5133675;27;20645;-55
2022/08/17 14:44:14;;;;;;;10.40;7.05;;;;;;;;;;5137030;27;20696;-54
2022/08/17 14:46:42;;;;;;;13.60;7.00;;;;;;;;;;5134633;27;20278;-57
2022/08/17 14:49:11;;;;;;;9.20;7.13;;;;;;;;;;5136088;27;20204;-57
2022/08/17 14:51:40;;;;;;;10.63;7.53;;;;;;;;;;5137302;27;20248;-58
2022/08/17 14:54:11;;;;;;;10.65;7.32;;;;;;;;;;5137190;27;20185;-58
2022/08/17 14:56:59;;;;;;;10.65;7.53;;;;;;;;;;5135627;27;20618;-58
2022/08/17 14:59:47;;;;;;;8.10;6.57;;;;;;;;;;5137478;27;20298;-57
2022/08/17 15:02:26;;;;;;;14.43;7.28;;;;;;;;;;5137034;27;20185;-57
2022/08/17 15:05:00;;;;;;;7.13;6.35;;;;;;;;;;5137245;27;20185;-57
2022/08/17 15:07:28;;;;;;;14.25;7.10;;;;;;;;;;5136790;27;20692;-58
2022/08/17 15:09:58;;;;;;;9.13;7.05;;;;;;;;;;5137019;27;20193;-58
2022/08/17 15:12:27;;;;;;;12.05;7.25;;;;;;;;;;5135577;27;20520;-58
2022/08/17 15:14:59;;;;;;;8.70;6.50;;;;;;;;;;5137178;27;20193;-59
2022/08/17 15:17:27;;;;;;;11.90;6.45;;;;;;;;;;5137623;27;20232;-58
2022/08/17 15:20:21;;;;;;;11.57;7.00;;;;;;;;;;5137761;27;20633;-58
2022/08/17 15:22:48;;;;;;;13.65;7.25;;;;;;;;;;5134489;27;20185;-58
2022/08/17 15:25:17;;;;;;;10.48;7.38;;;;;;;;;;5138554;27;20278;-58
2022/08/17 15:27:44;;;;;;;14.07;7.57;;;;;;;;;;5154715;27;20201;-58
2022/08/17 15:30:12;;;;;;;23.67;7.40;;;;;;;;;;5140293;27;20620;-58
2022/08/17 15:32:41;;;;;;;8.50;6.70;;;;;;;;;;5150450;27;20201;-58
2022/08/17 15:35:20;;;;;;;11.48;6.72;;;;;;;;;;5140435;27;20510;-58
2022/08/17 15:38:04;;;;;;;10.23;6.70;;;;;;;;;;5153540;27;20212;-56
2022/08/17 15:40:44;;;;;;;13.20;7.10;;;;;;;;;;5142935;27;20185;-58
2022/08/17 15:43:18;;;;;;;10.60;7.60;;;;;;;;;;5146282;27;20189;-58